createdAt,value
2023-03-19T00:00:45.366Z,20.73
2023-03-19T00:03:48.509Z,20.97
2023-03-19T00:06:53.396Z,20.43
2023-03-19T00:09:56.370Z,21.77
2023-03-19T00:12:59.339Z,20.47
2023-03-19T00:16:02.339Z,22.63
2023-03-19T00:19:05.655Z,22.03
2023-03-19T00:22:10.153Z,21.07
2023-03-19T00:25:13.697Z,20.27
2023-03-19T00:28:16.990Z,19.47
2023-03-19T00:31:19.938Z,21.20
2023-03-19T00:34:23.026Z,18.43
2023-03-19T00:37:27.372Z,19.00
2023-03-19T00:40:31.950Z,17.70
2023-03-19T00:43:35.424Z,16.90
2023-03-19T00:46:38.450Z,17.60
2023-03-19T00:49:41.405Z,16.80
2023-03-19T00:52:45.800Z,16.00
2023-03-19T00:55:48.893Z,15.93
2023-03-19T00:58:52.452Z,15.70
2023-03-19T01:01:55.784Z,16.00
2023-03-19T01:04:58.916Z,16.07
2023-03-19T01:08:03.592Z,15.30
2023-03-19T01:11:09.519Z,14.20
2023-03-19T01:14:12.827Z,14.47
2023-03-19T01:17:15.875Z,15.90
2023-03-19T01:20:24.164Z,15.07
2023-03-19T01:23:29.682Z,15.53
2023-03-19T01:26:32.773Z,15.13
2023-03-19T01:29:49.141Z,15.93
2023-03-19T01:33:23.709Z,16.30
2023-03-19T01:36:36.645Z,15.63
2023-03-19T01:39:43.523Z,17.23
2023-03-19T01:42:57.283Z,17.33
2023-03-19T01:46:34.275Z,17.97
2023-03-19T01:49:58.305Z,15.33
2023-03-19T01:53:01.788Z,15.80
2023-03-19T01:56:30.608Z,16.47
2023-03-19T01:59:44.136Z,15.87
2023-03-19T02:03:03.027Z,16.80
2023-03-19T02:06:28.289Z,17.53
2023-03-19T02:09:33.079Z,16.53
2023-03-19T02:12:38.067Z,16.33
2023-03-19T02:15:42.063Z,14.93
2023-03-19T02:18:45.638Z,14.43
2023-03-19T02:21:52.369Z,14.20
2023-03-19T02:25:00.894Z,14.90
2023-03-19T02:28:05.844Z,15.03
2023-03-19T02:31:10.017Z,15.33
2023-03-19T02:34:36.808Z,16.20
2023-03-19T02:37:40.003Z,15.37
2023-03-19T02:40:49.165Z,14.73
2023-03-19T02:43:54.858Z,13.43
2023-03-19T02:46:57.934Z,15.87
2023-03-19T02:50:01.051Z,15.33
2023-03-19T02:53:04.042Z,14.70
2023-03-19T02:56:08.008Z,15.83
2023-03-19T02:59:13.262Z,15.00
2023-03-19T03:02:16.256Z,14.97
2023-03-19T03:05:19.346Z,14.33
2023-03-19T03:08:23.608Z,14.63
2023-03-19T03:11:27.065Z,14.17
2023-03-19T03:14:31.708Z,13.93
2023-03-19T03:17:35.056Z,15.33
2023-03-19T03:20:38.328Z,15.27
2023-03-19T03:23:41.443Z,13.90
2023-03-19T03:26:44.912Z,15.00
2023-03-19T03:29:49.538Z,14.63
2023-03-19T03:32:52.572Z,15.13
2023-03-19T03:35:56.678Z,13.73
2023-03-19T03:38:59.758Z,16.07
2023-03-19T03:42:02.993Z,14.93
2023-03-19T03:45:10.904Z,15.13
2023-03-19T03:48:14.088Z,15.03
2023-03-19T03:51:17.541Z,14.27
2023-03-19T03:54:21.397Z,14.70
2023-03-19T03:57:24.444Z,14.93
2023-03-19T04:00:28.914Z,14.50
2023-03-19T04:03:31.966Z,15.53
2023-03-19T04:06:35.866Z,15.00
2023-03-19T04:09:52.523Z,14.33
2023-03-19T04:12:55.758Z,15.03
2023-03-19T04:16:00.760Z,15.13
2023-03-19T04:19:05.461Z,14.73
2023-03-19T04:22:08.853Z,15.50
2023-03-19T04:25:12.119Z,14.83
2023-03-19T04:28:16.273Z,15.13
2023-03-19T04:31:20.675Z,15.53
2023-03-19T04:34:25.034Z,15.93
2023-03-19T04:37:28.149Z,15.60
2023-03-19T04:40:31.792Z,14.53
2023-03-19T04:43:35.049Z,14.97
2023-03-19T04:46:41.852Z,14.50
2023-03-19T04:49:44.846Z,14.03
2023-03-19T04:52:48.196Z,14.77
2023-03-19T04:55:52.175Z,16.90
2023-03-19T04:58:56.873Z,14.83
2023-03-19T05:02:01.623Z,15.43
2023-03-19T05:05:07.264Z,14.97
2023-03-19T05:08:10.662Z,14.80
2023-03-19T05:11:14.004Z,15.43
2023-03-19T05:14:32.550Z,16.03
2023-03-19T05:17:45.373Z,16.27
2023-03-19T05:20:56.232Z,16.67
2023-03-19T05:24:01.039Z,17.60
2023-03-19T05:27:07.244Z,16.53
2023-03-19T05:30:28.818Z,19.33
2023-03-19T05:33:42.999Z,18.93
2023-03-19T05:36:46.465Z,18.50
2023-03-19T05:39:53.778Z,17.83
2023-03-19T05:42:56.934Z,20.53
2023-03-19T05:46:03.629Z,19.87
2023-03-19T05:49:12.179Z,19.83
2023-03-19T05:52:15.326Z,20.30
2023-03-19T05:55:19.562Z,20.63
2023-03-19T05:58:28.622Z,19.70
2023-03-19T06:01:31.698Z,20.30
2023-03-19T06:04:37.680Z,19.67
2023-03-19T06:07:40.855Z,19.00
2023-03-19T06:10:50.634Z,19.23
2023-03-19T06:13:53.695Z,19.43
2023-03-19T06:16:57.720Z,20.13
2023-03-19T06:20:02.097Z,19.53
2023-03-19T06:23:05.053Z,19.47
2023-03-19T06:26:08.172Z,18.13
2023-03-19T06:29:19.643Z,20.23
2023-03-19T06:32:25.685Z,18.47
2023-03-19T06:35:31.242Z,17.77
2023-03-19T06:38:35.603Z,18.17
2023-03-19T06:41:38.756Z,17.43
2023-03-19T06:44:52.328Z,17.70
2023-03-19T06:48:01.416Z,17.17
2023-03-19T06:51:08.006Z,17.07
2023-03-19T06:54:11.068Z,16.83
2023-03-19T06:57:14.038Z,16.00
2023-03-19T07:00:20.756Z,16.33
2023-03-19T07:03:24.514Z,17.03
2023-03-19T07:06:30.062Z,16.00
2023-03-19T07:09:33.224Z,16.37
2023-03-19T07:12:36.347Z,15.70
2023-03-19T07:15:42.190Z,17.20
2023-03-19T07:18:45.166Z,17.13
2023-03-19T07:21:52.461Z,17.30
2023-03-19T07:24:55.423Z,17.53
2023-03-19T07:27:58.479Z,18.33
2023-03-19T07:31:01.455Z,17.77
2023-03-19T07:34:04.860Z,19.07
2023-03-19T07:37:09.434Z,19.33
2023-03-19T07:40:13.099Z,20.13
2023-03-19T07:43:16.324Z,18.57
2023-03-19T07:46:19.623Z,18.20
2023-03-19T07:49:23.919Z,19.03
2023-03-19T07:52:28.806Z,18.63
2023-03-19T07:55:31.889Z,18.87
2023-03-19T07:58:35.449Z,18.67
2023-03-19T08:01:38.523Z,18.03
2023-03-19T08:04:42.296Z,18.33
2023-03-19T08:07:55.161Z,19.70
2023-03-19T08:11:26.517Z,14.97
2023-03-19T08:14:30.445Z,16.67
2023-03-19T08:17:38.137Z,15.87
2023-03-19T08:20:41.513Z,16.30
2023-03-19T08:23:45.832Z,17.27
2023-03-19T08:26:48.769Z,16.67
2023-03-19T08:29:51.712Z,15.43
2023-03-19T08:32:54.786Z,15.90
2023-03-19T08:36:07.382Z,13.83
2023-03-19T08:39:14.381Z,13.73
2023-03-19T08:42:17.384Z,13.37
2023-03-19T08:45:25.058Z,12.47
2023-03-19T08:48:28.550Z,13.73
2023-03-19T08:51:31.982Z,13.47
2023-03-19T08:54:37.084Z,15.80
2023-03-19T08:57:40.144Z,15.20
2023-03-19T09:00:43.161Z,15.97
2023-03-19T09:03:46.163Z,16.07
2023-03-19T09:06:51.458Z,16.50
2023-03-19T09:09:58.730Z,17.53
2023-03-19T09:13:02.113Z,17.37
2023-03-19T09:16:06.525Z,17.03
2023-03-19T09:19:10.327Z,18.47
2023-03-19T09:22:13.324Z,18.80
2023-03-19T09:25:17.815Z,17.53
2023-03-19T09:28:21.210Z,20.10
2023-03-19T09:31:24.295Z,18.10
2023-03-19T09:34:27.457Z,18.57
2023-03-19T09:37:30.440Z,18.70
2023-03-19T09:40:40.459Z,18.57
2023-03-19T09:44:02.329Z,18.23
2023-03-19T09:47:25.802Z,19.13
2023-03-19T09:50:29.785Z,17.37
2023-03-19T09:53:43.400Z,16.83
2023-03-19T09:56:47.814Z,17.97
2023-03-19T09:59:52.255Z,18.20
2023-03-19T10:03:18.596Z,19.40
2023-03-19T10:06:35.531Z,18.53
2023-03-19T10:09:52.899Z,17.20
2023-03-19T10:13:10.453Z,19.63
2023-03-19T10:16:18.095Z,22.07
2023-03-19T10:19:31.739Z,18.70
2023-03-19T10:22:45.407Z,18.43
2023-03-19T10:25:49.152Z,17.87
2023-03-19T10:29:05.195Z,19.43
2023-03-19T10:32:19.281Z,17.67
2023-03-19T10:35:29.455Z,18.07
2023-03-19T10:38:33.566Z,19.47
2023-03-19T10:41:48.589Z,18.73
2023-03-19T10:45:03.030Z,17.93
2023-03-19T10:48:07.588Z,17.57
2023-03-19T10:51:14.974Z,18.07
2023-03-19T10:54:25.221Z,17.57
2023-03-19T10:57:31.714Z,16.13
2023-03-19T11:00:36.443Z,16.07
2023-03-19T11:03:43.990Z,17.70
2023-03-19T11:06:51.017Z,16.03
2023-03-19T11:09:57.872Z,14.77
2023-03-19T11:13:04.940Z,15.67
2023-03-19T11:16:10.690Z,15.13
2023-03-19T11:19:21.452Z,13.93
2023-03-19T11:22:27.009Z,15.07
2023-03-19T11:25:36.803Z,13.73
2023-03-19T11:28:44.999Z,13.13
2023-03-19T11:31:56.798Z,13.73
2023-03-19T11:35:02.499Z,16.30
2023-03-19T11:38:08.202Z,13.20
2023-03-19T11:41:22.948Z,13.13
2023-03-19T11:44:32.214Z,12.10
2023-03-19T11:47:47.458Z,12.20
2023-03-19T11:50:55.477Z,10.87
2023-03-19T11:54:07.737Z,13.23
2023-03-19T11:57:16.298Z,12.17
2023-03-19T12:00:31.321Z,11.53
2023-03-19T12:04:12.318Z,11.13
2023-03-19T12:07:25.879Z,11.57
2023-03-19T12:10:46.350Z,11.00
2023-03-19T12:14:04.409Z,11.70
2023-03-19T12:17:34.183Z,11.17
2023-03-19T12:20:55.950Z,10.90
2023-03-19T12:24:09.156Z,11.17
2023-03-19T12:27:27.409Z,10.60
2023-03-19T12:30:37.458Z,11.33
2023-03-19T12:33:49.255Z,11.67
2023-03-19T12:36:59.612Z,10.53
2023-03-19T12:44:27.712Z,10.37
2023-03-19T12:47:39.239Z,10.90
2023-03-19T12:50:47.178Z,12.53
2023-03-19T12:53:57.689Z,12.63
2023-03-19T12:57:05.758Z,12.20
2023-03-19T13:00:20.268Z,10.53
2023-03-19T13:03:32.125Z,10.83
2023-03-19T13:06:38.557Z,10.70
2023-03-19T13:09:49.783Z,11.10
2023-03-19T13:12:56.078Z,10.18
2023-03-19T13:16:07.605Z,10.52
2023-03-19T13:19:22.906Z,10.73
2023-03-19T13:22:28.717Z,11.02
2023-03-19T13:25:38.302Z,10.50
2023-03-19T13:29:00.244Z,10.05
2023-03-19T13:32:07.518Z,12.13
2023-03-19T13:35:26.663Z,10.57
2023-03-19T13:38:39.482Z,10.30
2023-03-19T13:42:25.336Z,11.32
2023-03-19T13:45:36.772Z,9.73
2023-03-19T13:48:50.983Z,9.93
2023-03-19T13:51:57.289Z,9.10
2023-03-19T13:55:32.847Z,9.40
2023-03-19T13:58:52.111Z,10.88
2023-03-19T14:01:55.681Z,8.18
2023-03-19T14:05:02.876Z,8.00
2023-03-19T14:08:22.064Z,8.43
2023-03-19T14:11:26.592Z,8.60
2023-03-19T14:14:31.076Z,7.30
2023-03-19T14:17:37.065Z,8.73
2023-03-19T14:20:48.434Z,7.13
2023-03-19T14:23:57.747Z,7.75
2023-03-19T14:27:05.627Z,8.00
2023-03-19T14:30:22.118Z,7.32
2023-03-19T14:33:39.408Z,6.90
2023-03-19T14:36:50.919Z,7.40
2023-03-19T14:40:01.634Z,9.85
2023-03-19T14:43:14.853Z,8.18
2023-03-19T14:46:30.802Z,7.70
2023-03-19T14:50:17.456Z,6.95
2023-03-19T14:53:26.733Z,7.00
2023-03-19T14:56:35.870Z,7.47
2023-03-19T14:59:40.615Z,6.80
2023-03-19T15:02:48.153Z,7.72
2023-03-19T15:05:57.747Z,7.80
2023-03-19T15:09:02.440Z,7.28
2023-03-19T15:12:33.892Z,6.95
2023-03-19T15:16:12.865Z,7.55
2023-03-19T15:19:24.879Z,7.03
2023-03-19T15:22:31.751Z,6.95
2023-03-19T15:25:35.006Z,6.88
2023-03-19T15:28:49.517Z,7.15
2023-03-19T15:32:04.463Z,7.25
2023-03-19T15:35:10.879Z,7.97
2023-03-19T15:38:18.106Z,7.32
2023-03-19T15:41:23.772Z,7.05
2023-03-19T15:44:33.189Z,7.68
2023-03-19T15:47:41.350Z,8.15
2023-03-19T15:50:52.566Z,7.53
2023-03-19T15:53:59.167Z,7.28
2023-03-19T15:57:02.179Z,7.47
2023-03-19T16:00:09.874Z,7.20
2023-03-19T16:03:20.437Z,7.95
2023-03-19T16:06:28.895Z,7.75
2023-03-19T16:09:35.139Z,10.13
2023-03-19T16:12:41.037Z,10.20
2023-03-19T16:15:46.179Z,9.63
2023-03-19T16:18:52.229Z,8.95
2023-03-19T16:21:56.832Z,8.43
2023-03-19T16:25:02.403Z,9.90
2023-03-19T16:28:07.368Z,9.25
2023-03-19T16:31:23.133Z,9.02
2023-03-19T16:34:37.000Z,9.65
2023-03-19T16:37:45.193Z,9.18
2023-03-19T16:40:49.408Z,8.50
2023-03-19T16:43:54.475Z,8.52
2023-03-19T16:46:57.586Z,8.95
2023-03-19T16:50:00.711Z,9.52
2023-03-19T16:53:11.013Z,9.35
2023-03-19T16:56:16.165Z,8.63
2023-03-19T16:59:27.506Z,9.57
2023-03-19T17:02:35.631Z,9.93
2023-03-19T17:05:39.163Z,9.90
2023-03-19T17:08:44.067Z,10.10
2023-03-19T17:11:47.086Z,10.70
2023-03-19T17:14:52.994Z,10.68
2023-03-19T17:17:57.224Z,10.25
2023-03-19T17:21:04.654Z,11.97
2023-03-19T17:24:23.561Z,11.13
2023-03-19T17:27:27.814Z,11.57
2023-03-19T17:30:30.981Z,10.30
2023-03-19T17:33:38.860Z,10.67
2023-03-19T17:36:43.207Z,10.53
2023-03-19T17:39:47.742Z,11.40
2023-03-19T17:42:51.791Z,11.07
2023-03-19T17:45:56.988Z,12.30
2023-03-19T17:49:01.419Z,11.97
2023-03-19T17:52:04.901Z,11.70
2023-03-19T17:55:17.334Z,11.30
2023-03-19T17:58:22.897Z,12.03
2023-03-19T18:01:28.617Z,13.77
2023-03-19T18:04:31.679Z,12.30
2023-03-19T18:07:34.697Z,12.03
2023-03-19T18:10:39.002Z,12.57
2023-03-19T18:13:42.930Z,11.50
2023-03-19T18:16:47.312Z,13.27
2023-03-19T18:19:52.244Z,13.50
2023-03-19T18:22:55.973Z,13.70
2023-03-19T18:26:00.386Z,14.73
2023-03-19T18:29:04.217Z,15.87
2023-03-19T18:32:13.910Z,14.13
2023-03-19T18:35:18.221Z,15.43
2023-03-19T18:38:26.544Z,15.83
2023-03-19T18:41:34.623Z,17.77
2023-03-19T18:44:41.440Z,16.57
2023-03-19T18:47:46.416Z,15.60
2023-03-19T18:50:49.721Z,15.03
2023-03-19T18:53:52.680Z,16.23
2023-03-19T18:56:58.448Z,16.77
2023-03-19T19:00:01.652Z,15.93
2023-03-19T19:03:06.493Z,16.40
2023-03-19T19:06:09.998Z,18.23
2023-03-19T19:09:13.293Z,20.27
2023-03-19T19:12:19.100Z,18.27
2023-03-19T19:15:26.193Z,16.30
2023-03-19T19:18:32.782Z,17.13
2023-03-19T19:21:35.863Z,16.57
2023-03-19T19:24:38.825Z,17.70
2023-03-19T19:27:44.596Z,16.83
2023-03-19T19:30:49.294Z,17.10
2023-03-19T19:33:53.346Z,18.17
2023-03-19T19:36:58.607Z,16.77
2023-03-19T19:40:01.720Z,15.77
2023-03-19T19:43:06.066Z,15.07
2023-03-19T19:46:09.182Z,15.13
2023-03-19T19:49:14.824Z,14.77
2023-03-19T19:52:20.260Z,15.40
2023-03-19T19:55:25.328Z,16.63
2023-03-19T19:58:32.860Z,15.57
2023-03-19T20:01:36.094Z,15.73
2023-03-19T20:04:39.481Z,15.17
2023-03-19T20:07:42.495Z,16.13
2023-03-19T20:10:49.111Z,16.43
2023-03-19T20:13:55.854Z,16.20
2023-03-19T20:16:59.524Z,17.43
2023-03-19T20:20:02.849Z,16.17
2023-03-19T20:23:05.786Z,18.50
2023-03-19T20:26:14.763Z,18.27
2023-03-19T20:29:19.029Z,19.47
2023-03-19T20:32:28.572Z,19.63
2023-03-19T20:35:34.457Z,18.70
2023-03-19T20:38:37.697Z,17.40
2023-03-19T20:41:40.983Z,20.77
2023-03-19T20:44:46.035Z,18.30
2023-03-19T20:47:52.200Z,18.10
2023-03-19T20:50:55.720Z,16.47
2023-03-19T20:53:58.805Z,16.00
2023-03-19T20:57:02.441Z,16.53
2023-03-19T21:00:24.105Z,15.53
2023-03-19T21:03:30.479Z,15.70
2023-03-19T21:06:46.290Z,16.50
2023-03-19T21:09:56.250Z,18.20
2023-03-19T21:13:00.615Z,16.00
2023-03-19T21:16:05.311Z,12.87
2023-03-19T21:19:08.254Z,12.73
2023-03-19T21:22:16.822Z,13.53
2023-03-19T21:25:24.663Z,13.07
2023-03-19T21:28:31.017Z,12.40
2023-03-19T21:31:36.001Z,13.20
2023-03-19T21:34:39.012Z,13.50
2023-03-19T21:37:43.823Z,13.10
2023-03-19T21:40:47.649Z,12.83
2023-03-19T21:43:56.805Z,10.67
2023-03-19T21:47:02.771Z,9.63
2023-03-19T21:50:07.198Z,9.13
2023-03-19T21:53:11.014Z,8.60
2023-03-19T21:56:23.689Z,9.60
2023-03-19T21:59:31.666Z,8.93
2023-03-19T22:02:44.382Z,10.63
2023-03-19T22:05:49.852Z,9.57
2023-03-19T22:08:54.546Z,11.30
2023-03-19T22:11:57.558Z,11.03
2023-03-19T22:15:01.149Z,11.97
2023-03-19T22:18:07.958Z,10.90
2023-03-19T22:21:15.290Z,8.80
2023-03-19T22:24:18.661Z,7.73
2023-03-19T22:27:21.649Z,7.90
2023-03-19T22:30:33.978Z,7.40
2023-03-19T22:33:39.367Z,7.33
2023-03-19T22:36:42.455Z,7.17
2023-03-19T22:39:45.413Z,6.33
2023-03-19T22:42:49.831Z,6.50
2023-03-19T22:45:59.279Z,6.87
2023-03-19T22:49:09.998Z,7.10
2023-03-19T22:52:13.796Z,6.93
2023-03-19T22:55:17.513Z,6.27
2023-03-19T22:58:20.897Z,6.43
2023-03-19T23:01:36.319Z,7.10
2023-03-19T23:04:41.654Z,6.97
2023-03-19T23:07:44.667Z,6.70
2023-03-19T23:10:48.254Z,7.17
2023-03-19T23:13:51.932Z,7.27
2023-03-19T23:20:03.223Z,6.87
2023-03-19T23:23:07.583Z,6.63
2023-03-19T23:26:26.344Z,8.03
2023-03-19T23:29:34.487Z,10.67
2023-03-19T23:32:37.597Z,10.73
2023-03-19T23:35:43.669Z,9.50
2023-03-19T23:38:47.590Z,10.57
2023-03-19T23:41:55.616Z,9.70
2023-03-19T23:45:05.815Z,7.87
2023-03-19T23:48:15.898Z,7.77
2023-03-19T23:51:20.417Z,7.50
2023-03-19T23:54:30.438Z,7.33
2023-03-19T23:57:34.196Z,6.70
